sensor_id;sensor_type;location;lat;lon;timestamp;pressure;altitude;pressure_sealevel;temperature
61703;BMP280;47622;47.726;3.298;2023-12-14T00:01:40;98508.53;;;7.30
61703;BMP280;47622;47.726;3.298;2023-12-14T00:04:07;98502.91;;;7.37
61703;BMP280;47622;47.726;3.298;2023-12-14T00:06:32;98496.06;;;7.27
61703;BMP280;47622;47.726;3.298;2023-12-14T00:08:58;98517.41;;;7.29
61703;BMP280;47622;47.726;3.298;2023-12-14T00:11:24;98513.31;;;7.23
61703;BMP280;47622;47.726;3.298;2023-12-14T00:13:49;98505.06;;;7.21
61703;BMP280;47622;47.726;3.298;2023-12-14T00:16:15;98493.09;;;7.20
61703;BMP280;47622;47.726;3.298;2023-12-14T00:18:40;98511.41;;;7.29
61703;BMP280;47622;47.726;3.298;2023-12-14T00:21:06;98516.25;;;7.22
61703;BMP280;47622;47.726;3.298;2023-12-14T00:23:33;98514.50;;;7.17
61703;BMP280;47622;47.726;3.298;2023-12-14T00:25:59;98517.03;;;7.22
61703;BMP280;47622;47.726;3.298;2023-12-14T00:28:24;98522.06;;;7.19
61703;BMP280;47622;47.726;3.298;2023-12-14T00:30:50;98521.84;;;7.15
61703;BMP280;47622;47.726;3.298;2023-12-14T00:33:15;98534.22;;;7.09
61703;BMP280;47622;47.726;3.298;2023-12-14T00:35:41;98528.38;;;6.99
61703;BMP280;47622;47.726;3.298;2023-12-14T00:38:06;98534.94;;;6.96
61703;BMP280;47622;47.726;3.298;2023-12-14T00:40:32;98541.41;;;6.99
61703;BMP280;47622;47.726;3.298;2023-12-14T00:42:58;98539.38;;;6.96
61703;BMP280;47622;47.726;3.298;2023-12-14T00:45:23;98543.44;;;7.02
61703;BMP280;47622;47.726;3.298;2023-12-14T00:47:49;98547.53;;;7.08
61703;BMP280;47622;47.726;3.298;2023-12-14T00:50:14;98561.03;;;7.10
61703;BMP280;47622;47.726;3.298;2023-12-14T00:52:40;98539.56;;;7.13
61703;BMP280;47622;47.726;3.298;2023-12-14T00:55:05;98550.13;;;7.08
61703;BMP280;47622;47.726;3.298;2023-12-14T00:57:31;98560.06;;;7.06
61703;BMP280;47622;47.726;3.298;2023-12-14T00:59:57;98566.25;;;7.10
61703;BMP280;47622;47.726;3.298;2023-12-14T01:02:22;98578.97;;;7.11
61703;BMP280;47622;47.726;3.298;2023-12-14T01:04:48;98581.28;;;7.13
61703;BMP280;47622;47.726;3.298;2023-12-14T01:07:13;98584.41;;;7.15
61703;BMP280;47622;47.726;3.298;2023-12-14T01:09:39;98589.03;;;7.18
61703;BMP280;47622;47.726;3.298;2023-12-14T01:12:04;98591.84;;;7.08
61703;BMP280;47622;47.726;3.298;2023-12-14T01:14:30;98587.66;;;7.07
61703;BMP280;47622;47.726;3.298;2023-12-14T01:16:55;98589.78;;;7.05
61703;BMP280;47622;47.726;3.298;2023-12-14T01:19:21;98604.66;;;7.04
61703;BMP280;47622;47.726;3.298;2023-12-14T01:21:47;98604.66;;;7.04
61703;BMP280;47622;47.726;3.298;2023-12-14T01:24:12;98610.34;;;7.06
61703;BMP280;47622;47.726;3.298;2023-12-14T01:26:38;98618.94;;;7.07
61703;BMP280;47622;47.726;3.298;2023-12-14T01:29:03;98609.63;;;7.01
61703;BMP280;47622;47.726;3.298;2023-12-14T01:31:29;98624.44;;;7.05
61703;BMP280;47622;47.726;3.298;2023-12-14T01:33:54;98628.94;;;7.00
61703;BMP280;47622;47.726;3.298;2023-12-14T01:36:24;98629.44;;;7.02
61703;BMP280;47622;47.726;3.298;2023-12-14T01:38:50;98632.59;;;6.99
61703;BMP280;47622;47.726;3.298;2023-12-14T01:41:16;98640.38;;;7.04
61703;BMP280;47622;47.726;3.298;2023-12-14T01:43:42;98646.41;;;6.99
61703;BMP280;47622;47.726;3.298;2023-12-14T01:46:07;98641.69;;;7.01
61703;BMP280;47622;47.726;3.298;2023-12-14T01:48:33;98647.63;;;6.88
61703;BMP280;47622;47.726;3.298;2023-12-14T01:50:58;98644.75;;;6.90
61703;BMP280;47622;47.726;3.298;2023-12-14T01:53:24;98650.44;;;6.92
61703;BMP280;47622;47.726;3.298;2023-12-14T01:55:49;98645.34;;;7.00
61703;BMP280;47622;47.726;3.298;2023-12-14T01:58:15;98652.09;;;7.01
61703;BMP280;47622;47.726;3.298;2023-12-14T02:00:55;98657.94;;;6.98
61703;BMP280;47622;47.726;3.298;2023-12-14T02:03:23;98657.53;;;7.05
61703;BMP280;47622;47.726;3.298;2023-12-14T02:05:48;98662.28;;;7.03
61703;BMP280;47622;47.726;3.298;2023-12-14T02:08:14;98659.66;;;7.03
61703;BMP280;47622;47.726;3.298;2023-12-14T02:10:39;98657.94;;;6.98
61703;BMP280;47622;47.726;3.298;2023-12-14T02:13:05;98664.38;;;7.01
61703;BMP280;47622;47.726;3.298;2023-12-14T02:15:31;98678.16;;;7.01
61703;BMP280;47622;47.726;3.298;2023-12-14T02:17:56;98679.94;;;7.06
61703;BMP280;47622;47.726;3.298;2023-12-14T02:20:22;98681.53;;;7.02
61703;BMP280;47622;47.726;3.298;2023-12-14T02:22:54;98686.69;;;7.07
61703;BMP280;47622;47.726;3.298;2023-12-14T02:25:21;98685.91;;;7.06
61703;BMP280;47622;47.726;3.298;2023-12-14T02:27:47;98696.88;;;7.08
61703;BMP280;47622;47.726;3.298;2023-12-14T02:30:13;98684.78;;;7.12
61703;BMP280;47622;47.726;3.298;2023-12-14T02:32:39;98699.50;;;7.22
61703;BMP280;47622;47.726;3.298;2023-12-14T02:35:05;98697.63;;;7.09
61703;BMP280;47622;47.726;3.298;2023-12-14T02:37:32;98701.78;;;7.10
61703;BMP280;47622;47.726;3.298;2023-12-14T02:39:58;98705.44;;;7.09
61703;BMP280;47622;47.726;3.298;2023-12-14T02:42:24;98701.78;;;7.10
61703;BMP280;47622;47.726;3.298;2023-12-14T02:44:49;98701.38;;;7.03
61703;BMP280;47622;47.726;3.298;2023-12-14T02:47:15;98702.41;;;7.02
61703;BMP280;47622;47.726;3.298;2023-12-14T02:49:41;98720.31;;;7.08
61703;BMP280;47622;47.726;3.298;2023-12-14T02:52:07;98706.22;;;7.09
61703;BMP280;47622;47.726;3.298;2023-12-14T02:54:32;98714.88;;;7.05
61703;BMP280;47622;47.726;3.298;2023-12-14T02:56:58;98717.75;;;7.22
61703;BMP280;47622;47.726;3.298;2023-12-14T02:59:23;98727.88;;;7.24
61703;BMP280;47622;47.726;3.298;2023-12-14T03:01:49;98729.09;;;7.31
61703;BMP280;47622;47.726;3.298;2023-12-14T03:04:14;98726.34;;;7.23
61703;BMP280;47622;47.726;3.298;2023-12-14T03:06:40;98732.31;;;7.23
61703;BMP280;47622;47.726;3.298;2023-12-14T03:09:05;98735.56;;;7.15
61703;BMP280;47622;47.726;3.298;2023-12-14T03:11:31;98737.66;;;7.13
61703;BMP280;47622;47.726;3.298;2023-12-14T03:13:56;98744.47;;;7.14
61703;BMP280;47622;47.726;3.298;2023-12-14T03:16:22;98735.00;;;7.18
61703;BMP280;47622;47.726;3.298;2023-12-14T03:18:47;98741.34;;;7.12
61703;BMP280;47622;47.726;3.298;2023-12-14T03:21:17;98746.72;;;7.21
61703;BMP280;47622;47.726;3.298;2023-12-14T03:23:43;98739.44;;;7.18
61703;BMP280;47622;47.726;3.298;2023-12-14T03:26:09;98757.97;;;7.16
61703;BMP280;47622;47.726;3.298;2023-12-14T03:28:34;98750.94;;;7.17
61703;BMP280;47622;47.726;3.298;2023-12-14T03:31:00;98748.69;;;7.10
61703;BMP280;47622;47.726;3.298;2023-12-14T03:33:26;98758.75;;;7.17
61703;BMP280;47622;47.726;3.298;2023-12-14T03:35:51;98746.00;;;7.15
61703;BMP280;47622;47.726;3.298;2023-12-14T03:38:17;98747.94;;;7.23
61703;BMP280;47622;47.726;3.298;2023-12-14T03:40:42;98760.88;;;7.14
61703;BMP280;47622;47.726;3.298;2023-12-14T03:43:08;98764.38;;;7.24
61703;BMP280;47622;47.726;3.298;2023-12-14T03:45:33;98767.72;;;7.29
61703;BMP280;47622;47.726;3.298;2023-12-14T03:47:59;98771.94;;;7.25
61703;BMP280;47622;47.726;3.298;2023-12-14T03:50:24;98775.03;;;7.27
61703;BMP280;47622;47.726;3.298;2023-12-14T03:52:50;98779.06;;;7.20
61703;BMP280;47622;47.726;3.298;2023-12-14T03:55:15;98775.16;;;7.17
61703;BMP280;47622;47.726;3.298;2023-12-14T03:57:41;98785.06;;;7.20
61703;BMP280;47622;47.726;3.298;2023-12-14T04:00:13;98801.75;;;7.19
61703;BMP280;47622;47.726;3.298;2023-12-14T04:02:40;98797.56;;;7.18
61703;BMP280;47622;47.726;3.298;2023-12-14T04:05:09;98799.19;;;7.14
61703;BMP280;47622;47.726;3.298;2023-12-14T04:07:39;98818.47;;;7.13
61703;BMP280;47622;47.726;3.298;2023-12-14T04:10:14;98825.41;;;7.23
61703;BMP280;47622;47.726;3.298;2023-12-14T04:12:40;98837.97;;;7.21
61703;BMP280;47622;47.726;3.298;2023-12-14T04:15:07;98833.28;;;7.18
61703;BMP280;47622;47.726;3.298;2023-12-14T04:17:35;98837.19;;;7.20
61703;BMP280;47622;47.726;3.298;2023-12-14T04:20:01;98841.88;;;7.18
61703;BMP280;47622;47.726;3.298;2023-12-14T04:22:28;98858.53;;;7.22
61703;BMP280;47622;47.726;3.298;2023-12-14T04:24:54;98854.44;;;7.16
61703;BMP280;47622;47.726;3.298;2023-12-14T04:27:19;98862.50;;;7.20
61703;BMP280;47622;47.726;3.298;2023-12-14T04:29:45;98860.41;;;7.17
61703;BMP280;47622;47.726;3.298;2023-12-14T04:32:11;98876.59;;;7.19
61703;BMP280;47622;47.726;3.298;2023-12-14T04:34:36;98872.63;;;7.21
61703;BMP280;47622;47.726;3.298;2023-12-14T04:37:02;98885.88;;;7.25
61703;BMP280;47622;47.726;3.298;2023-12-14T04:39:28;98879.31;;;7.27
61703;BMP280;47622;47.726;3.298;2023-12-14T04:41:53;98890.44;;;7.14
61703;BMP280;47622;47.726;3.298;2023-12-14T04:44:19;98890.94;;;7.16
61703;BMP280;47622;47.726;3.298;2023-12-14T04:46:50;98898.22;;;7.19
61703;BMP280;47622;47.726;3.298;2023-12-14T04:49:16;98896.38;;;7.20
61703;BMP280;47622;47.726;3.298;2023-12-14T04:51:42;98905.94;;;7.24
61703;BMP280;47622;47.726;3.298;2023-12-14T04:54:08;98895.13;;;7.12
61703;BMP280;47622;47.726;3.298;2023-12-14T04:56:34;98901.47;;;7.06
61703;BMP280;47622;47.726;3.298;2023-12-14T04:59:00;98907.25;;;7.03
61703;BMP280;47622;47.726;3.298;2023-12-14T05:01:25;98920.28;;;7.03
61703;BMP280;47622;47.726;3.298;2023-12-14T05:03:54;98926.41;;;7.12
61703;BMP280;47622;47.726;3.298;2023-12-14T05:06:20;98933.13;;;7.18
61703;BMP280;47622;47.726;3.298;2023-12-14T05:08:47;98924.81;;;7.16
61703;BMP280;47622;47.726;3.298;2023-12-14T05:11:13;98940.84;;;7.28
61703;BMP280;47622;47.726;3.298;2023-12-14T05:13:39;98939.28;;;7.27
61703;BMP280;47622;47.726;3.298;2023-12-14T05:16:05;98949.88;;;7.12
61703;BMP280;47622;47.726;3.298;2023-12-14T05:18:31;98956.09;;;7.16
61703;BMP280;47622;47.726;3.298;2023-12-14T05:20:56;98960.06;;;7.13
61703;BMP280;47622;47.726;3.298;2023-12-14T05:23:22;98967.06;;;7.13
61703;BMP280;47622;47.726;3.298;2023-12-14T05:25:47;98968.13;;;7.12
61703;BMP280;47622;47.726;3.298;2023-12-14T05:28:13;98979.56;;;7.16
61703;BMP280;47622;47.726;3.298;2023-12-14T05:30:38;98977.91;;;7.25
61703;BMP280;47622;47.726;3.298;2023-12-14T05:33:04;98991.97;;;7.29
61703;BMP280;47622;47.726;3.298;2023-12-14T05:35:29;98995.16;;;7.21
61703;BMP280;47622;47.726;3.298;2023-12-14T05:37:55;99005.03;;;7.24
61703;BMP280;47622;47.726;3.298;2023-12-14T05:40:21;99015.75;;;7.23
61703;BMP280;47622;47.726;3.298;2023-12-14T05:42:47;99015.47;;;7.24
61703;BMP280;47622;47.726;3.298;2023-12-14T05:45:12;99021.16;;;7.26
61703;BMP280;47622;47.726;3.298;2023-12-14T05:47:38;99026.09;;;7.28
61703;BMP280;47622;47.726;3.298;2023-12-14T05:50:04;99027.44;;;7.25
61703;BMP280;47622;47.726;3.298;2023-12-14T05:52:30;99032.09;;;7.28
61703;BMP280;47622;47.726;3.298;2023-12-14T05:54:55;99031.59;;;7.26
61703;BMP280;47622;47.726;3.298;2023-12-14T05:57:21;99035.63;;;7.19
61703;BMP280;47622;47.726;3.298;2023-12-14T05:59:50;99036.44;;;7.14
61703;BMP280;47622;47.726;3.298;2023-12-14T06:02:15;99047.84;;;7.18
61703;BMP280;47622;47.726;3.298;2023-12-14T06:04:41;99052.53;;;7.21
61703;BMP280;47622;47.726;3.298;2023-12-14T06:07:07;99057.19;;;7.24
61703;BMP280;47622;47.726;3.298;2023-12-14T06:09:34;99056.63;;;7.27
61703;BMP280;47622;47.726;3.298;2023-12-14T06:12:04;99061.16;;;7.17
61703;BMP280;47622;47.726;3.298;2023-12-14T06:14:30;99074.44;;;7.20
61703;BMP280;47622;47.726;3.298;2023-12-14T06:16:56;99085.66;;;7.21
61703;BMP280;47622;47.726;3.298;2023-12-14T06:19:22;99087.41;;;7.25
61703;BMP280;47622;47.726;3.298;2023-12-14T06:21:48;99093.78;;;7.14
61703;BMP280;47622;47.726;3.298;2023-12-14T06:24:13;99097.38;;;7.18
61703;BMP280;47622;47.726;3.298;2023-12-14T06:26:43;99099.00;;;7.14
61703;BMP280;47622;47.726;3.298;2023-12-14T06:29:09;99107.31;;;7.16
61703;BMP280;47622;47.726;3.298;2023-12-14T06:31:35;99108.38;;;7.15
61703;BMP280;47622;47.726;3.298;2023-12-14T06:34:00;99111.25;;;7.13
61703;BMP280;47622;47.726;3.298;2023-12-14T06:36:30;99127.72;;;7.09
61703;BMP280;47622;47.726;3.298;2023-12-14T06:38:57;99131.81;;;7.15
61703;BMP280;47622;47.726;3.298;2023-12-14T06:41:23;99129.50;;;7.13
61703;BMP280;47622;47.726;3.298;2023-12-14T06:43:50;99131.81;;;7.15
61703;BMP280;47622;47.726;3.298;2023-12-14T06:46:15;99131.91;;;7.05
61703;BMP280;47622;47.726;3.298;2023-12-14T06:48:41;99138.69;;;7.06
61703;BMP280;47622;47.726;3.298;2023-12-14T06:51:07;99134.78;;;7.03
61703;BMP280;47622;47.726;3.298;2023-12-14T06:53:34;99155.88;;;7.07
61703;BMP280;47622;47.726;3.298;2023-12-14T06:55:59;99156.91;;;7.11
61703;BMP280;47622;47.726;3.298;2023-12-14T06:58:25;99163.63;;;7.12
61703;BMP280;47622;47.726;3.298;2023-12-14T07:00:52;99163.44;;;7.08
61703;BMP280;47622;47.726;3.298;2023-12-14T07:03:17;99169.38;;;7.14
61703;BMP280;47622;47.726;3.298;2023-12-14T07:05:43;99177.75;;;7.11
61703;BMP280;47622;47.726;3.298;2023-12-14T07:08:08;99177.63;;;7.26
61703;BMP280;47622;47.726;3.298;2023-12-14T07:10:34;99184.47;;;7.17
61703;BMP280;47622;47.726;3.298;2023-12-14T07:12:59;99194.91;;;7.17
61703;BMP280;47622;47.726;3.298;2023-12-14T07:15:25;99189.94;;;7.21
61703;BMP280;47622;47.726;3.298;2023-12-14T07:17:50;99195.97;;;7.16
61703;BMP280;47622;47.726;3.298;2023-12-14T07:20:16;99207.47;;;7.10
61703;BMP280;47622;47.726;3.298;2023-12-14T07:22:41;99205.88;;;7.19
61703;BMP280;47622;47.726;3.298;2023-12-14T07:25:08;99209.50;;;7.18
61703;BMP280;47622;47.726;3.298;2023-12-14T07:27:34;99213.06;;;7.27
61703;BMP280;47622;47.726;3.298;2023-12-14T07:29:59;99223.44;;;7.37
61703;BMP280;47622;47.726;3.298;2023-12-14T07:32:25;99223.22;;;7.34
61703;BMP280;47622;47.726;3.298;2023-12-14T07:34:52;99226.16;;;7.22
61703;BMP280;47622;47.726;3.298;2023-12-14T07:37:17;99239.41;;;7.31
61703;BMP280;47622;47.726;3.298;2023-12-14T07:39:43;99249.13;;;7.20
61703;BMP280;47622;47.726;3.298;2023-12-14T07:42:08;99256.97;;;7.15
61703;BMP280;47622;47.726;3.298;2023-12-14T07:44:34;99259.31;;;7.11
61703;BMP280;47622;47.726;3.298;2023-12-14T07:47:01;99271.84;;;7.14
61703;BMP280;47622;47.726;3.298;2023-12-14T07:49:27;99260.63;;;7.14
61703;BMP280;47622;47.726;3.298;2023-12-14T07:51:53;99273.41;;;7.16
61703;BMP280;47622;47.726;3.298;2023-12-14T07:54:19;99272.63;;;7.15
61703;BMP280;47622;47.726;3.298;2023-12-14T07:56:44;99282.50;;;7.18
61703;BMP280;47622;47.726;3.298;2023-12-14T07:59:13;99283.31;;;7.19
61703;BMP280;47622;47.726;3.298;2023-12-14T08:01:38;99298.44;;;7.11
61703;BMP280;47622;47.726;3.298;2023-12-14T08:04:04;99296.13;;;7.10
61703;BMP280;47622;47.726;3.298;2023-12-14T08:06:29;99312.00;;;7.13
61703;BMP280;47622;47.726;3.298;2023-12-14T08:08:55;99314.59;;;7.19
61703;BMP280;47622;47.726;3.298;2023-12-14T08:11:24;99315.81;;;7.26
61703;BMP280;47622;47.726;3.298;2023-12-14T08:13:49;99316.94;;;7.20
61703;BMP280;47622;47.726;3.298;2023-12-14T08:16:15;99330.47;;;7.17
61703;BMP280;47622;47.726;3.298;2023-12-14T08:18:42;99329.97;;;7.15
61703;BMP280;47622;47.726;3.298;2023-12-14T08:21:10;99335.47;;;7.13
61703;BMP280;47622;47.726;3.298;2023-12-14T08:23:35;99337.78;;;7.15
61703;BMP280;47622;47.726;3.298;2023-12-14T08:26:01;99343.78;;;7.16
61703;BMP280;47622;47.726;3.298;2023-12-14T08:28:27;99341.97;;;7.16
61703;BMP280;47622;47.726;3.298;2023-12-14T08:30:52;99348.72;;;7.17
61703;BMP280;47622;47.726;3.298;2023-12-14T08:33:18;99365.63;;;7.30
61703;BMP280;47622;47.726;3.298;2023-12-14T08:35:43;99366.38;;;7.35
61703;BMP280;47622;47.726;3.298;2023-12-14T08:38:10;99373.16;;;7.36
61703;BMP280;47622;47.726;3.298;2023-12-14T08:40:36;99373.16;;;7.36
61703;BMP280;47622;47.726;3.298;2023-12-14T08:43:02;99369.28;;;7.24
61703;BMP280;47622;47.726;3.298;2023-12-14T08:45:28;99379.72;;;7.24
61703;BMP280;47622;47.726;3.298;2023-12-14T08:47:54;99386.75;;;7.28
61703;BMP280;47622;47.726;3.298;2023-12-14T08:50:19;99395.09;;;7.30
61703;BMP280;47622;47.726;3.298;2023-12-14T08:52:45;99395.66;;;7.17
61703;BMP280;47622;47.726;3.298;2023-12-14T08:55:11;99408.69;;;7.22
61703;BMP280;47622;47.726;3.298;2023-12-14T08:57:36;99404.53;;;7.16
61703;BMP280;47622;47.726;3.298;2023-12-14T09:00:02;99406.09;;;7.17
61703;BMP280;47622;47.726;3.298;2023-12-14T09:02:30;99423.78;;;7.30
61703;BMP280;47622;47.726;3.298;2023-12-14T09:04:55;99419.09;;;7.32
61703;BMP280;47622;47.726;3.298;2023-12-14T09:07:21;99439.16;;;7.32
61703;BMP280;47622;47.726;3.298;2023-12-14T09:09:46;99439.44;;;7.30
61703;BMP280;47622;47.726;3.298;2023-12-14T09:12:12;99444.06;;;7.38
61703;BMP280;47622;47.726;3.298;2023-12-14T09:14:37;99445.63;;;7.39
61703;BMP280;47622;47.726;3.298;2023-12-14T09:17:03;99443.03;;;7.45
61703;BMP280;47622;47.726;3.298;2023-12-14T09:19:31;99447.75;;;7.37
61703;BMP280;47622;47.726;3.298;2023-12-14T09:21:57;99445.13;;;7.42
61703;BMP280;47622;47.726;3.298;2023-12-14T09:24:23;99447.47;;;7.39
61703;BMP280;47622;47.726;3.298;2023-12-14T09:26:49;99461.06;;;7.36
61703;BMP280;47622;47.726;3.298;2023-12-14T09:29:15;99461.28;;;7.39
61703;BMP280;47622;47.726;3.298;2023-12-14T09:31:42;99466.50;;;7.45
61703;BMP280;47622;47.726;3.298;2023-12-14T09:34:08;99462.88;;;7.40
61703;BMP280;47622;47.726;3.298;2023-12-14T09:36:34;99460.78;;;7.42
61703;BMP280;47622;47.726;3.298;2023-12-14T09:39:00;99474.09;;;7.46
61703;BMP280;47622;47.726;3.298;2023-12-14T09:41:25;99478.22;;;7.52
61703;BMP280;47622;47.726;3.298;2023-12-14T09:43:52;99487.88;;;7.57
61703;BMP280;47622;47.726;3.298;2023-12-14T09:46:18;99493.56;;;7.59
61703;BMP280;47622;47.726;3.298;2023-12-14T09:48:46;99505.09;;;7.58
61703;BMP280;47622;47.726;3.298;2023-12-14T09:51:13;99510.53;;;7.61
61703;BMP280;47622;47.726;3.298;2023-12-14T09:53:40;99518.09;;;7.63
61703;BMP280;47622;47.726;3.298;2023-12-14T09:56:05;99512.88;;;7.63
61703;BMP280;47622;47.726;3.298;2023-12-14T09:58:32;99525.44;;;7.56
61703;BMP280;47622;47.726;3.298;2023-12-14T10:00:58;99521.75;;;7.62
61703;BMP280;47622;47.726;3.298;2023-12-14T10:03:27;99536.88;;;7.65
61703;BMP280;47622;47.726;3.298;2023-12-14T10:05:55;99544.69;;;7.60
61703;BMP280;47622;47.726;3.298;2023-12-14T10:08:21;99552.53;;;7.65
61703;BMP280;47622;47.726;3.298;2023-12-14T10:10:49;99555.13;;;7.60
61703;BMP280;47622;47.726;3.298;2023-12-14T10:13:16;99553.56;;;7.64
61703;BMP280;47622;47.726;3.298;2023-12-14T10:15:49;99563.72;;;7.76
61703;BMP280;47622;47.726;3.298;2023-12-14T10:18:22;99565.78;;;7.84
61703;BMP280;47622;47.726;3.298;2023-12-14T10:20:49;99567.06;;;7.91
61703;BMP280;47622;47.726;3.298;2023-12-14T10:23:14;99568.34;;;7.99
61703;BMP280;47622;47.726;3.298;2023-12-14T10:25:42;99575.34;;;8.04
61703;BMP280;47622;47.726;3.298;2023-12-14T10:28:08;99578.03;;;7.88
61703;BMP280;47622;47.726;3.298;2023-12-14T10:30:33;99579.56;;;7.94
61703;BMP280;47622;47.726;3.298;2023-12-14T10:32:59;99587.69;;;7.88
61703;BMP280;47622;47.726;3.298;2023-12-14T10:35:25;99595.22;;;7.94
61703;BMP280;47622;47.726;3.298;2023-12-14T10:37:51;99595.72;;;8.02
61703;BMP280;47622;47.726;3.298;2023-12-14T10:40:17;99593.66;;;7.98
61703;BMP280;47622;47.726;3.298;2023-12-14T10:42:44;99595.53;;;7.88
61703;BMP280;47622;47.726;3.298;2023-12-14T10:45:14;99608.28;;;7.94
61703;BMP280;47622;47.726;3.298;2023-12-14T10:47:46;99609.84;;;7.95
61703;BMP280;47622;47.726;3.298;2023-12-14T10:50:12;99617.91;;;8.04
61703;BMP280;47622;47.726;3.298;2023-12-14T10:52:41;99628.13;;;8.00
61703;BMP280;47622;47.726;3.298;2023-12-14T10:55:43;99622.34;;;8.04
61703;BMP280;47622;47.726;3.298;2023-12-14T10:58:09;99629.94;;;7.95
61703;BMP280;47622;47.726;3.298;2023-12-14T11:00:35;99633.66;;;7.89
61703;BMP280;47622;47.726;3.298;2023-12-14T11:03:04;99633.06;;;7.92
61703;BMP280;47622;47.726;3.298;2023-12-14T11:05:32;99637.00;;;7.94
61703;BMP280;47622;47.726;3.298;2023-12-14T11:08:03;99639.06;;;7.97
61703;BMP280;47622;47.726;3.298;2023-12-14T11:10:39;99639.66;;;7.84
61703;BMP280;47622;47.726;3.298;2023-12-14T11:13:10;99632.09;;;7.83
61703;BMP280;47622;47.726;3.298;2023-12-14T11:15:37;99647.47;;;7.84
61703;BMP280;47622;47.726;3.298;2023-12-14T11:20:57;99643.28;;;7.93
61703;BMP280;47622;47.726;3.298;2023-12-14T11:25:52;99655.00;;;8.01
61703;BMP280;47622;47.726;3.298;2023-12-14T11:28:19;99653.69;;;8.04
61703;BMP280;47622;47.726;3.298;2023-12-14T11:30:46;99655.50;;;8.08
61703;BMP280;47622;47.726;3.298;2023-12-14T11:33:12;99652.09;;;8.13
61703;BMP280;47622;47.726;3.298;2023-12-14T11:35:38;99656.72;;;8.31
61703;BMP280;47622;47.726;3.298;2023-12-14T11:38:03;99645.69;;;8.39
61703;BMP280;47622;47.726;3.298;2023-12-14T11:40:45;99660.03;;;8.52
61703;BMP280;47622;47.726;3.298;2023-12-14T11:43:10;99662.81;;;8.61
61703;BMP280;47622;47.726;3.298;2023-12-14T11:45:37;99676.44;;;8.57
61703;BMP280;47622;47.726;3.298;2023-12-14T11:48:03;99665.72;;;8.59
61703;BMP280;47622;47.726;3.298;2023-12-14T11:50:32;99676.69;;;8.56
61703;BMP280;47622;47.726;3.298;2023-12-14T11:53:00;99671.16;;;8.68
61703;BMP280;47622;47.726;3.298;2023-12-14T11:55:26;99668.78;;;8.71
61703;BMP280;47622;47.726;3.298;2023-12-14T11:57:52;99673.78;;;8.68
61703;BMP280;47622;47.726;3.298;2023-12-14T12:00:23;99676.44;;;8.63
61703;BMP280;47622;47.726;3.298;2023-12-14T12:02:49;99667.09;;;8.51
61703;BMP280;47622;47.726;3.298;2023-12-14T12:05:15;99677.03;;;8.39
61703;BMP280;47622;47.726;3.298;2023-12-14T12:07:44;99679.19;;;8.27
61703;BMP280;47622;47.726;3.298;2023-12-14T12:10:10;99680.47;;;8.24
61703;BMP280;47622;47.726;3.298;2023-12-14T12:12:36;99696.69;;;8.32
61703;BMP280;47622;47.726;3.298;2023-12-14T12:15:04;99686.59;;;8.05
61703;BMP280;47622;47.726;3.298;2023-12-14T12:17:30;99685.03;;;8.04
61703;BMP280;47622;47.726;3.298;2023-12-14T12:20:05;99683.72;;;8.01
61703;BMP280;47622;47.726;3.298;2023-12-14T12:22:31;99693.38;;;8.06
61703;BMP280;47622;47.726;3.298;2023-12-14T12:24:57;99692.63;;;8.00
61703;BMP280;47622;47.726;3.298;2023-12-14T12:27:23;99697.56;;;8.02
61703;BMP280;47622;47.726;3.298;2023-12-14T12:29:49;99700.16;;;8.07
61703;BMP280;47622;47.726;3.298;2023-12-14T12:32:18;99694.63;;;8.18
61703;BMP280;47622;47.726;3.298;2023-12-14T12:34:44;99698.63;;;7.95
61703;BMP280;47622;47.726;3.298;2023-12-14T12:37:09;99694.97;;;7.86
61703;BMP280;47622;47.726;3.298;2023-12-14T12:39:35;99694.97;;;7.91
61703;BMP280;47622;47.726;3.298;2023-12-14T12:42:00;99704.63;;;8.01
61703;BMP280;47622;47.726;3.298;2023-12-14T12:44:26;99699.84;;;8.18
61703;BMP280;47622;47.726;3.298;2023-12-14T12:46:52;99697.75;;;8.31
61703;BMP280;47622;47.726;3.298;2023-12-14T12:49:22;99706.59;;;8.35
61703;BMP280;47622;47.726;3.298;2023-12-14T12:51:47;99702.13;;;8.35
61703;BMP280;47622;47.726;3.298;2023-12-14T12:54:13;99702.13;;;8.35
61703;BMP280;47622;47.726;3.298;2023-12-14T12:56:38;99701.09;;;8.41
61703;BMP280;47622;47.726;3.298;2023-12-14T12:59:04;99712.56;;;8.35
61703;BMP280;47622;47.726;3.298;2023-12-14T13:01:30;99712.63;;;8.30
61703;BMP280;47622;47.726;3.298;2023-12-14T13:03:55;99712.41;;;8.21
61703;BMP280;47622;47.726;3.298;2023-12-14T13:06:24;99710.56;;;8.17
61703;BMP280;47622;47.726;3.298;2023-12-14T13:08:53;99709.00;;;8.16
61703;BMP280;47622;47.726;3.298;2023-12-14T13:11:19;99723.38;;;8.08
61703;BMP280;47622;47.726;3.298;2023-12-14T13:13:44;99719.78;;;7.99
61703;BMP280;47622;47.726;3.298;2023-12-14T13:16:10;99729.44;;;7.98
61703;BMP280;47622;47.726;3.298;2023-12-14T13:18:39;99730.50;;;7.72
61703;BMP280;47622;47.726;3.298;2023-12-14T13:21:04;99740.94;;;7.82
61703;BMP280;47622;47.726;3.298;2023-12-14T13:23:30;99743.28;;;7.63
61703;BMP280;47622;47.726;3.298;2023-12-14T13:25:56;99742.50;;;7.63
61703;BMP280;47622;47.726;3.298;2023-12-14T13:28:21;99748.78;;;7.52
61703;BMP280;47622;47.726;3.298;2023-12-14T13:30:47;99748.25;;;7.50
61703;BMP280;47622;47.726;3.298;2023-12-14T13:33:13;99743.00;;;7.50
61703;BMP280;47622;47.726;3.298;2023-12-14T13:35:38;99736.78;;;7.46
61703;BMP280;47622;47.726;3.298;2023-12-14T13:38:04;99753.19;;;7.71
61703;BMP280;47622;47.726;3.298;2023-12-14T13:40:29;99758.16;;;7.93
61703;BMP280;47622;47.726;3.298;2023-12-14T13:42:55;99751.34;;;7.92
61703;BMP280;47622;47.726;3.298;2023-12-14T13:45:25;99752.41;;;7.96
61703;BMP280;47622;47.726;3.298;2023-12-14T13:47:51;99760.75;;;8.04
61703;BMP280;47622;47.726;3.298;2023-12-14T13:50:16;99758.66;;;8.06
61703;BMP280;47622;47.726;3.298;2023-12-14T13:52:42;99761.25;;;8.16
61703;BMP280;47622;47.726;3.298;2023-12-14T13:55:08;99767.03;;;8.03
61703;BMP280;47622;47.726;3.298;2023-12-14T13:57:34;99764.16;;;8.04
61703;BMP280;47622;47.726;3.298;2023-12-14T13:59:59;99766.50;;;8.06
61703;BMP280;47622;47.726;3.298;2023-12-14T14:02:25;99776.94;;;8.06
61703;BMP280;47622;47.726;3.298;2023-12-14T14:04:52;99782.19;;;8.00
61703;BMP280;47622;47.726;3.298;2023-12-14T14:07:18;99787.66;;;7.99
61703;BMP280;47622;47.726;3.298;2023-12-14T14:09:43;99793.69;;;7.99
61703;BMP280;47622;47.726;3.298;2023-12-14T14:12:09;99789.50;;;7.98
61703;BMP280;47622;47.726;3.298;2023-12-14T14:14:35;99800.97;;;7.97
61703;BMP280;47622;47.726;3.298;2023-12-14T14:17:00;99807.78;;;7.98
61703;BMP280;47622;47.726;3.298;2023-12-14T14:19:27;99796.53;;;7.93
61703;BMP280;47622;47.726;3.298;2023-12-14T14:21:53;99803.06;;;7.80